Time;durP1;ratioP1;P1;durP2;ratioP2;P2;SDS_P1;SDS_P2;PMS_P1;PMS_P2;Temp;Humidity;BMP_temperature;BMP_pressure;BME280_temperature;BME280_humidity;BME280_pressure;Samples;Min_cycle;Max_cycle;Signal;HPM_P1;HPM_P2
2023/01/12 00:02:13;;;;;;;17.85;10.80;;;;;;;;;;5010397;28;20038;-53
2023/01/12 00:04:39;;;;;;;15.93;10.05;;;;;;;;;;5010371;28;20746;-55
2023/01/12 00:07:06;;;;;;;16.90;9.98;;;;;;;;;;5003611;28;20088;-56
2023/01/12 00:09:32;;;;;;;16.33;10.48;;;;;;;;;;5035005;23;20049;-52
2023/01/12 00:11:58;;;;;;;16.60;10.30;;;;;;;;;;5033203;28;20057;-57
2023/01/12 00:14:24;;;;;;;18.98;11.30;;;;;;;;;;5032670;28;20014;-55
2023/01/12 00:16:50;;;;;;;16.83;12.57;;;;;;;;;;5033276;28;20539;-55
2023/01/12 00:19:17;;;;;;;19.42;13.00;;;;;;;;;;5033256;28;20025;-56
2023/01/12 00:24:39;;;;;;;27.83;25.48;;;;;;;;;;5033295;28;20064;-56
2023/01/12 00:27:09;;;;;;;25.83;23.58;;;;;;;;;;5033357;28;20775;-55
2023/01/12 00:29:35;;;;;;;25.10;22.55;;;;;;;;;;5033987;28;20116;-52
2023/01/12 00:32:01;;;;;;;26.05;23.48;;;;;;;;;;5032417;28;20030;-51
2023/01/12 00:34:28;;;;;;;23.27;21.05;;;;;;;;;;5032434;28;20041;-56
2023/01/12 00:36:54;;;;;;;25.80;23.08;;;;;;;;;;5033800;28;20044;-56
2023/01/12 00:39:20;;;;;;;24.42;22.20;;;;;;;;;;5033587;28;20033;-57
2023/01/12 00:47:16;;;;;;;29.73;21.73;;;;;;;;;;5033994;28;20520;-51
2023/01/12 00:49:42;;;;;;;25.95;21.08;;;;;;;;;;5033522;28;20578;-56
2023/01/12 00:52:09;;;;;;;28.90;20.15;;;;;;;;;;5033633;28;20028;-56
2023/01/12 00:54:36;;;;;;;23.90;19.15;;;;;;;;;;5033204;28;20032;-53
2023/01/12 00:57:02;;;;;;;23.05;18.70;;;;;;;;;;5033347;28;20033;-55
2023/01/12 00:59:28;;;;;;;20.95;17.60;;;;;;;;;;5033382;28;20028;-55
2023/01/12 01:01:55;;;;;;;26.67;18.35;;;;;;;;;;5033482;28;20095;-56
2023/01/12 01:04:21;;;;;;;23.30;17.80;;;;;;;;;;5033078;28;20562;-54
2023/01/12 01:06:47;;;;;;;21.52;18.20;;;;;;;;;;5033211;28;20022;-57
2023/01/12 01:09:13;;;;;;;24.25;18.67;;;;;;;;;;5031610;28;20123;-56
2023/01/12 01:11:39;;;;;;;22.33;17.75;;;;;;;;;;5033074;28;20098;-53
2023/01/12 01:14:05;;;;;;;23.60;19.63;;;;;;;;;;5033002;28;20026;-57
2023/01/12 01:16:32;;;;;;;26.67;19.42;;;;;;;;;;5033142;28;20033;-55
2023/01/12 01:18:58;;;;;;;25.05;20.10;;;;;;;;;;5030880;28;20470;-57
2023/01/12 01:21:24;;;;;;;28.77;22.67;;;;;;;;;;5031801;28;20084;-59
2023/01/12 01:23:51;;;;;;;24.42;21.92;;;;;;;;;;5032670;28;20021;-56
2023/01/12 01:26:18;;;;;;;25.45;22.77;;;;;;;;;;5033139;28;20025;-56
2023/01/12 01:28:44;;;;;;;28.67;23.63;;;;;;;;;;5032861;28;20033;-56
2023/01/12 01:31:18;;;;;;;27.48;24.63;;;;;;;;;;5032914;28;20025;-56
2023/01/12 01:33:44;;;;;;;29.80;26.95;;;;;;;;;;5032595;28;20400;-58
2023/01/12 01:36:11;;;;;;;28.98;26.33;;;;;;;;;;5032762;28;20033;-58
2023/01/12 01:38:37;;;;;;;27.40;24.88;;;;;;;;;;5031184;28;20033;-55
2023/01/12 01:41:04;;;;;;;27.45;24.60;;;;;;;;;;5032250;28;20393;-56
2023/01/12 01:43:47;;;;;;;31.23;28.52;;;;;;;;;;5032200;28;20018;-56
2023/01/12 01:46:15;;;;;;;34.75;31.38;;;;;;;;;;5031386;28;20029;-57
2023/01/12 01:48:42;;;;;;;33.22;29.80;;;;;;;;;;5032481;28;20116;-58
2023/01/12 01:51:11;;;;;;;30.13;27.10;;;;;;;;;;5032546;28;20052;-57
2023/01/12 01:53:39;;;;;;;25.83;23.40;;;;;;;;;;5032087;28;20036;-56
2023/01/12 01:56:10;;;;;;;24.48;21.58;;;;;;;;;;5032246;28;20025;-54
2023/01/12 01:58:52;;;;;;;23.15;20.85;;;;;;;;;;5032218;28;20040;-56
2023/01/12 02:01:18;;;;;;;26.73;21.63;;;;;;;;;;5032160;28;20107;-58
2023/01/12 02:03:44;;;;;;;21.50;19.17;;;;;;;;;;5030681;28;20087;-57
2023/01/12 02:06:11;;;;;;;19.88;17.52;;;;;;;;;;5032157;28;20025;-55
2023/01/12 02:08:43;;;;;;;19.95;17.35;;;;;;;;;;5031952;28;20029;-53
2023/01/12 02:16:19;;;;;;;21.33;17.85;;;;;;;;;;5032190;28;20037;-55
2023/01/12 02:16:43;;;;;;;24.30;18.08;;;;;;;;;;5031864;28;20056;-56
2023/01/12 02:19:15;;;;;;;23.23;16.77;;;;;;;;;;5030799;28;20018;-55
2023/01/12 02:21:59;;;;;;;22.35;17.70;;;;;;;;;;5032014;28;20030;-57
2023/01/12 02:24:38;;;;;;;19.35;16.88;;;;;;;;;;5030810;28;20029;-52
2023/01/12 02:27:07;;;;;;;21.52;17.67;;;;;;;;;;5034541;28;20025;-55
2023/01/12 02:29:39;;;;;;;20.33;18.10;;;;;;;;;;5032380;28;20049;-57
2023/01/12 02:32:14;;;;;;;23.02;18.30;;;;;;;;;;5030721;28;20560;-57
2023/01/12 02:34:53;;;;;;;25.02;19.83;;;;;;;;;;5031528;28;20025;-54
2023/01/12 02:37:25;;;;;;;22.65;19.42;;;;;;;;;;5031816;28;20034;-58
2023/01/12 02:40:04;;;;;;;22.98;20.58;;;;;;;;;;5031666;28;20109;-58
2023/01/12 02:42:53;;;;;;;22.45;19.67;;;;;;;;;;5031812;28;20026;-56
2023/01/12 02:45:28;;;;;;;23.15;18.83;;;;;;;;;;5031793;28;20051;-56
2023/01/12 02:48:02;;;;;;;20.52;17.95;;;;;;;;;;5031551;28;20398;-57
2023/01/12 02:50:28;;;;;;;25.67;19.75;;;;;;;;;;5030507;28;20194;-53
2023/01/12 02:52:57;;;;;;;21.55;19.25;;;;;;;;;;5031632;28;20036;-56
2023/01/12 02:55:25;;;;;;;22.50;20.17;;;;;;;;;;5031952;28;20437;-55
2023/01/12 02:57:52;;;;;;;23.70;21.27;;;;;;;;;;5030383;28;20041;-54
2023/01/12 03:00:18;;;;;;;25.27;22.88;;;;;;;;;;5031558;28;20018;-54
2023/01/12 03:02:44;;;;;;;37.90;34.72;;;;;;;;;;5031510;28;20029;-58
2023/01/12 03:05:10;;;;;;;50.55;46.45;;;;;;;;;;5031411;28;20041;-56
2023/01/12 03:07:45;;;;;;;46.75;43.35;;;;;;;;;;5031590;28;20434;-56
2023/01/12 03:10:30;;;;;;;51.25;47.58;;;;;;;;;;5031382;28;20033;-55
2023/01/12 03:12:58;;;;;;;49.25;45.47;;;;;;;;;;5030193;28;20045;-58
2023/01/12 03:15:26;;;;;;;52.45;48.53;;;;;;;;;;5031254;28;20017;-56
2023/01/12 03:18:02;;;;;;;54.80;50.40;;;;;;;;;;5031549;28;20025;-56
2023/01/12 03:20:31;;;;;;;53.65;49.58;;;;;;;;;;5031320;28;20022;-56
2023/01/12 03:23:00;;;;;;;55.97;51.13;;;;;;;;;;5030159;28;20022;-55
2023/01/12 03:25:28;;;;;;;58.90;53.80;;;;;;;;;;5030037;28;20105;-55
2023/01/12 03:27:55;;;;;;;60.83;55.75;;;;;;;;;;5031437;28;20517;-52
2023/01/12 03:30:28;;;;;;;56.50;52.33;;;;;;;;;;5031313;28;20029;-53
2023/01/12 03:32:54;;;;;;;57.50;53.05;;;;;;;;;;5031340;28;20031;-54
2023/01/12 03:35:25;;;;;;;58.33;53.83;;;;;;;;;;5031179;28;20071;-51
2023/01/12 03:37:54;;;;;;;57.08;52.28;;;;;;;;;;5030126;28;20032;-51
2023/01/12 03:40:25;;;;;;;53.38;49.38;;;;;;;;;;5029906;28;20049;-56
2023/01/12 03:42:54;;;;;;;53.42;48.63;;;;;;;;;;5033323;28;20079;-52
2023/01/12 03:45:38;;;;;;;54.85;50.80;;;;;;;;;;5033701;28;20025;-54
2023/01/12 03:48:12;;;;;;;51.72;48.00;;;;;;;;;;5034761;28;20034;-57
2023/01/12 03:50:46;;;;;;;48.67;45.08;;;;;;;;;;5034626;28;20482;-56
2023/01/12 03:53:13;;;;;;;52.22;47.50;;;;;;;;;;5034308;28;20033;-58
2023/01/12 03:55:40;;;;;;;48.75;44.75;;;;;;;;;;5033376;28;20115;-54
2023/01/12 03:58:06;;;;;;;52.80;48.92;;;;;;;;;;5034478;28;20032;-53
2023/01/12 04:00:32;;;;;;;53.58;49.28;;;;;;;;;;5033205;28;20043;-55
2023/01/12 04:03:03;;;;;;;50.63;46.78;;;;;;;;;;5033142;28;20041;-57
2023/01/12 04:05:29;;;;;;;46.38;42.50;;;;;;;;;;5034473;28;20013;-56
2023/01/12 04:07:54;;;;;;;47.85;43.85;;;;;;;;;;5033042;28;20025;-55
2023/01/12 04:10:20;;;;;;;46.40;42.35;;;;;;;;;;5034066;28;20397;-53
2023/01/12 04:12:46;;;;;;;46.60;43.00;;;;;;;;;;5033243;28;20084;-56
2023/01/12 04:15:12;;;;;;;46.63;42.95;;;;;;;;;;5034364;28;20025;-57
2023/01/12 04:17:39;;;;;;;46.10;42.70;;;;;;;;;;5034337;28;20095;-57
2023/01/12 04:20:05;;;;;;;49.42;45.45;;;;;;;;;;5034132;28;20405;-57
2023/01/12 04:22:43;;;;;;;49.78;45.35;;;;;;;;;;5034163;28;20482;-56
2023/01/12 04:25:10;;;;;;;49.05;44.95;;;;;;;;;;5032687;28;20032;-56
2023/01/12 04:27:36;;;;;;;50.47;45.85;;;;;;;;;;5032799;28;20029;-57
2023/01/12 04:30:02;;;;;;;52.58;47.95;;;;;;;;;;5032505;28;20076;-53
2023/01/12 04:32:28;;;;;;;49.13;45.30;;;;;;;;;;5033569;28;20490;-56
2023/01/12 04:34:54;;;;;;;44.88;40.95;;;;;;;;;;5033078;28;20036;-52
2023/01/12 04:37:20;;;;;;;44.30;40.70;;;;;;;;;;5032363;28;20437;-56
2023/01/12 04:39:46;;;;;;;45.72;42.00;;;;;;;;;;5033756;28;20101;-55
2023/01/12 04:44:57;;;;;;;47.28;43.53;;;;;;;;;;5033128;28;20087;-57
2023/01/12 04:47:23;;;;;;;50.13;46.42;;;;;;;;;;5033547;28;20029;-57
2023/01/12 04:49:49;;;;;;;53.40;47.85;;;;;;;;;;5033427;28;20059;-58
2023/01/12 04:52:15;;;;;;;49.45;45.08;;;;;;;;;;5032082;28;20034;-55
2023/01/12 04:54:41;;;;;;;50.40;46.10;;;;;;;;;;5031861;28;20033;-56
2023/01/12 04:57:07;;;;;;;47.22;43.55;;;;;;;;;;5033281;28;20022;-57
2023/01/12 04:59:33;;;;;;;46.85;43.05;;;;;;;;;;5033152;28;20033;-59
2023/01/12 05:01:59;;;;;;;44.90;41.38;;;;;;;;;;5031801;28;20112;-56
2023/01/12 05:04:26;;;;;;;46.60;42.75;;;;;;;;;;5031700;28;20049;-54
2023/01/12 05:06:52;;;;;;;46.78;42.58;;;;;;;;;;5033176;28;20637;-54
2023/01/12 05:12:02;;;;;;;44.47;40.95;;;;;;;;;;5033569;28;20394;-54
2023/01/12 05:14:28;;;;;;;45.00;41.35;;;;;;;;;;5031449;28;20025;-50
2023/01/12 05:16:55;;;;;;;49.42;45.38;;;;;;;;;;5032705;28;20025;-52
2023/01/12 05:19:21;;;;;;;46.75;43.00;;;;;;;;;;5032612;28;20052;-55
2023/01/12 05:21:47;;;;;;;46.90;43.13;;;;;;;;;;5031531;28;20064;-52
2023/01/12 05:24:13;;;;;;;49.20;44.90;;;;;;;;;;5032266;28;20111;-55
2023/01/12 05:26:39;;;;;;;44.63;41.25;;;;;;;;;;5032531;28;20121;-56
2023/01/12 05:29:05;;;;;;;43.75;40.53;;;;;;;;;;5032543;28;20064;-53
2023/01/12 05:31:33;;;;;;;44.03;40.47;;;;;;;;;;5032633;28;20105;-52
2023/01/12 05:33:59;;;;;;;43.22;40.13;;;;;;;;;;5032496;28;20087;-53
2023/01/12 05:36:25;;;;;;;42.50;39.55;;;;;;;;;;5032455;28;20033;-52
2023/01/12 05:38:51;;;;;;;42.95;39.65;;;;;;;;;;5032521;28;20022;-55
2023/01/12 05:41:17;;;;;;;39.95;36.95;;;;;;;;;;5032324;28;20403;-55
2023/01/12 05:43:49;;;;;;;41.05;38.15;;;;;;;;;;5030996;28;20040;-53
2023/01/12 05:46:15;;;;;;;42.63;39.28;;;;;;;;;;5032046;28;20421;-49
2023/01/12 05:48:42;;;;;;;42.65;39.70;;;;;;;;;;5032355;28;20026;-49
2023/01/12 05:51:09;;;;;;;44.10;40.53;;;;;;;;;;5032218;28;20060;-53
2023/01/12 05:53:35;;;;;;;42.58;39.47;;;;;;;;;;5031914;28;20075;-56
2023/01/12 05:56:09;;;;;;;45.42;42.03;;;;;;;;;;5032071;28;20526;-54
2023/01/12 05:58:35;;;;;;;45.33;42.33;;;;;;;;;;5031995;28;20025;-55
2023/01/12 06:01:01;;;;;;;47.40;43.85;;;;;;;;;;5031826;28;20026;-50
2023/01/12 06:03:27;;;;;;;47.60;44.20;;;;;;;;;;5030447;28;20091;-52
2023/01/12 06:05:54;;;;;;;43.75;40.75;;;;;;;;;;5031198;28;20029;-50
2023/01/12 06:08:20;;;;;;;41.53;38.63;;;;;;;;;;5031706;28;20397;-54
2023/01/12 06:10:46;;;;;;;42.97;39.65;;;;;;;;;;5031156;28;20524;-54
2023/01/12 06:16:03;;;;;;;43.55;40.60;;;;;;;;;;5031135;28;20087;-49
2023/01/12 06:18:31;;;;;;;48.10;44.45;;;;;;;;;;5030136;28;20390;-53
2023/01/12 06:20:58;;;;;;;45.00;41.83;;;;;;;;;;5031383;28;20041;-51
2023/01/12 06:23:24;;;;;;;45.22;41.25;;;;;;;;;;5029550;28;20757;-54
2023/01/12 06:25:50;;;;;;;46.40;43.42;;;;;;;;;;5030030;28;20121;-58
2023/01/12 06:28:16;;;;;;;45.97;42.97;;;;;;;;;;5031263;28;20048;-49
2023/01/12 06:30:42;;;;;;;45.92;42.72;;;;;;;;;;5030825;28;20029;-45
2023/01/12 06:33:08;;;;;;;45.80;42.53;;;;;;;;;;5030469;28;20056;-49
2023/01/12 06:35:34;;;;;;;44.40;41.38;;;;;;;;;;5030881;28;20021;-49
2023/01/12 06:38:00;;;;;;;45.05;41.85;;;;;;;;;;5030964;28;20025;-56
2023/01/12 06:40:26;;;;;;;43.75;40.58;;;;;;;;;;5030695;28;20072;-56
2023/01/12 06:42:52;;;;;;;42.78;39.70;;;;;;;;;;5030918;28;20406;-55
2023/01/12 06:45:18;;;;;;;43.03;40.13;;;;;;;;;;5030179;28;20021;-53
2023/01/12 06:47:51;;;;;;;41.15;37.83;;;;;;;;;;5030075;28;20052;-55
2023/01/12 06:50:17;;;;;;;40.28;37.47;;;;;;;;;;5031011;28;20068;-56
2023/01/12 06:52:43;;;;;;;40.05;37.25;;;;;;;;;;5030419;28;20517;-51
2023/01/12 06:55:09;;;;;;;38.92;36.30;;;;;;;;;;5029499;28;20454;-56
2023/01/12 06:57:35;;;;;;;38.35;35.55;;;;;;;;;;5027037;28;20496;-55
2023/01/12 07:00:01;;;;;;;38.30;35.42;;;;;;;;;;5030106;28;20026;-55
2023/01/12 07:02:27;;;;;;;38.55;35.85;;;;;;;;;;5010831;28;20022;-56
2023/01/12 07:04:53;;;;;;;39.00;36.20;;;;;;;;;;5015281;28;20022;-57
2023/01/12 07:07:19;;;;;;;41.30;38.30;;;;;;;;;;5029433;28;20026;-51
2023/01/12 07:09:45;;;;;;;42.33;39.22;;;;;;;;;;5030414;28;20044;-59
2023/01/12 07:12:11;;;;;;;42.85;39.95;;;;;;;;;;5028767;28;20485;-48
2023/01/12 07:14:37;;;;;;;41.88;38.92;;;;;;;;;;5029523;28;20207;-54
2023/01/12 07:17:03;;;;;;;40.30;37.40;;;;;;;;;;5031278;28;20025;-49
2023/01/12 07:19:29;;;;;;;39.67;36.83;;;;;;;;;;5035027;28;20028;-56
2023/01/12 07:21:55;;;;;;;39.25;36.33;;;;;;;;;;5033992;28;20025;-52
2023/01/12 07:24:21;;;;;;;38.90;36.10;;;;;;;;;;5032156;28;20028;-55
2023/01/12 07:26:48;;;;;;;38.80;36.10;;;;;;;;;;5034458;28;20037;-56
2023/01/12 07:29:15;;;;;;;38.70;35.90;;;;;;;;;;5034207;28;20401;-51
2023/01/12 07:31:43;;;;;;;38.80;36.03;;;;;;;;;;5034216;28;20503;-59
2023/01/12 07:34:09;;;;;;;38.42;35.60;;;;;;;;;;5032487;28;20116;-47
2023/01/12 07:36:35;;;;;;;39.63;36.92;;;;;;;;;;5033795;28;20101;-53
2023/01/12 07:39:01;;;;;;;39.83;36.95;;;;;;;;;;5034332;28;20025;-55
2023/01/12 07:44:11;;;;;;;40.15;37.30;;;;;;;;;;5034014;28;20028;-54
2023/01/12 07:46:38;;;;;;;40.97;37.80;;;;;;;;;;5034305;28;20540;-53
2023/01/12 07:49:03;;;;;;;42.35;39.35;;;;;;;;;;5033861;28;20401;-57
2023/01/12 07:51:30;;;;;;;41.67;38.78;;;;;;;;;;5034398;28;20022;-51
2023/01/12 07:53:56;;;;;;;40.58;37.75;;;;;;;;;;5032153;28;20515;-57
2023/01/12 07:56:22;;;;;;;41.38;38.30;;;;;;;;;;5034051;28;20030;-53
2023/01/12 07:58:49;;;;;;;41.30;38.30;;;;;;;;;;5033476;28;20021;-60
2023/01/12 08:01:15;;;;;;;41.80;38.65;;;;;;;;;;5032399;28;20035;-55
2023/01/12 08:03:41;;;;;;;40.05;37.25;;;;;;;;;;5033793;28;20103;-54
2023/01/12 08:06:08;;;;;;;39.60;36.75;;;;;;;;;;5034141;28;20508;-56
2023/01/12 08:08:34;;;;;;;40.33;37.47;;;;;;;;;;5033499;28;20104;-57
2023/01/12 08:11:01;;;;;;;39.95;37.13;;;;;;;;;;5034099;28;20076;-60
2023/01/12 08:13:27;;;;;;;38.97;36.15;;;;;;;;;;5033639;28;20339;-57
2023/01/12 08:15:54;;;;;;;40.33;36.97;;;;;;;;;;5034040;28;20066;-60
2023/01/12 08:18:25;;;;;;;40.53;37.72;;;;;;;;;;5033754;28;20028;-58
2023/01/12 08:20:51;;;;;;;41.92;38.60;;;;;;;;;;5034002;28;20040;-58
2023/01/12 08:23:23;;;;;;;41.38;38.60;;;;;;;;;;5033899;28;20493;-60
2023/01/12 08:25:55;;;;;;;41.92;38.92;;;;;;;;;;5034835;28;20382;-59
2023/01/12 08:28:23;;;;;;;41.33;38.53;;;;;;;;;;5032706;28;20350;-60
2023/01/12 08:30:49;;;;;;;;;;;;;;;;;;5035554;28;20104;-55
2023/01/12 08:33:16;;;;;;;40.63;37.45;;;;;;;;;;5034412;28;20070;-57
2023/01/12 08:35:42;;;;;;;42.15;38.92;;;;;;;;;;5033782;28;20032;-61
2023/01/12 08:38:09;;;;;;;40.95;37.83;;;;;;;;;;5032369;28;20463;-59
2023/01/12 08:44:00;;;;;;;40.25;37.05;;;;;;;;;;5033225;28;20513;-61
2023/01/12 08:46:09;;;;;;;39.80;36.90;;;;;;;;;;5033095;28;20544;-58
2023/01/12 08:48:35;;;;;;;41.17;38.10;;;;;;;;;;5032943;28;20030;-59
2023/01/12 08:51:02;;;;;;;39.38;36.30;;;;;;;;;;5033121;28;20032;-62
2023/01/12 08:53:29;;;;;;;39.00;36.10;;;;;;;;;;5032403;28;20449;-65
2023/01/12 08:55:55;;;;;;;37.40;34.80;;;;;;;;;;5032880;28;20021;-62
2023/01/12 08:58:21;;;;;;;36.13;33.33;;;;;;;;;;5032858;28;20393;-62
2023/01/12 09:00:47;;;;;;;36.30;33.45;;;;;;;;;;5033078;28;20032;-64
2023/01/12 09:03:13;;;;;;;34.70;32.13;;;;;;;;;;5032982;28;20026;-63
2023/01/12 09:05:39;;;;;;;35.67;32.97;;;;;;;;;;5033149;28;20021;-64
2023/01/12 09:08:05;;;;;;;38.53;35.67;;;;;;;;;;5033157;28;20498;-63
2023/01/12 09:10:32;;;;;;;38.20;35.40;;;;;;;;;;5031208;28;20116;-62
2023/01/12 09:12:58;;;;;;;38.83;35.53;;;;;;;;;;5031887;28;20462;-64
2023/01/12 09:15:24;;;;;;;38.65;35.67;;;;;;;;;;5031390;28;20049;-64
2023/01/12 09:17:53;;;;;;;38.67;35.97;;;;;;;;;;5032690;28;20108;-62
2023/01/12 09:20:19;;;;;;;40.85;37.65;;;;;;;;;;5032838;28;20017;-59
2023/01/12 09:22:45;;;;;;;36.70;34.03;;;;;;;;;;5032826;28;20021;-61
2023/01/12 09:25:12;;;;;;;39.03;35.97;;;;;;;;;;5030738;28;20045;-65
2023/01/12 09:27:38;;;;;;;37.72;35.13;;;;;;;;;;5030887;28;20036;-63
2023/01/12 09:30:05;;;;;;;38.95;36.15;;;;;;;;;;5030755;28;20032;-63
2023/01/12 09:32:31;;;;;;;39.17;36.33;;;;;;;;;;5030670;28;20152;-62
2023/01/12 09:35:00;;;;;;;39.63;36.83;;;;;;;;;;5030534;28;20033;-63
2023/01/12 09:37:27;;;;;;;39.55;36.65;;;;;;;;;;5030626;28;20032;-63
2023/01/12 09:39:53;;;;;;;40.42;37.63;;;;;;;;;;5031100;28;20053;-63
2023/01/12 09:48:02;;;;;;;45.15;42.05;;;;;;;;;;5033011;28;20532;-64
2023/01/12 09:50:32;;;;;;;41.90;38.95;;;;;;;;;;5032418;28;20108;-60
2023/01/12 09:53:07;;;;;;;41.15;38.35;;;;;;;;;;5032016;28;20025;-63
2023/01/12 09:55:41;;;;;;;43.63;40.58;;;;;;;;;;5031050;28;20120;-63
2023/01/12 09:58:37;;;;;;;41.80;38.90;;;;;;;;;;5031960;28;20029;-63
2023/01/12 10:01:08;;;;;;;41.20;38.17;;;;;;;;;;4996219;28;20670;-61
2023/01/12 10:03:37;;;;;;;37.75;34.85;;;;;;;;;;5030724;28;20116;-59
2023/01/12 10:06:04;;;;;;;35.92;33.28;;;;;;;;;;5030677;28;20025;-61
2023/01/12 10:08:30;;;;;;;35.05;32.53;;;;;;;;;;5030400;28;20055;-57
2023/01/12 10:11:19;;;;;;;33.75;31.15;;;;;;;;;;5031644;28;20033;-63
2023/01/12 10:13:51;;;;;;;32.70;30.25;;;;;;;;;;5028783;28;20033;-59
2023/01/12 10:16:25;;;;;;;32.45;30.05;;;;;;;;;;5031802;28;20021;-60
2023/01/12 10:18:53;;;;;;;34.25;31.63;;;;;;;;;;5030173;28;20072;-59
2023/01/12 10:21:22;;;;;;;34.75;32.25;;;;;;;;;;5030504;28;20098;-61
2023/01/12 10:23:48;;;;;;;;;;;;;;;;;;5031794;28;20099;-61
2023/01/12 10:26:31;;;;;;;34.70;32.20;;;;;;;;;;5031484;28;19967;-63
2023/01/12 10:28:58;;;;;;;34.85;32.25;;;;;;;;;;5031528;28;20025;-60
2023/01/12 10:31:25;;;;;;;35.83;33.33;;;;;;;;;;5031462;28;20493;-59
2023/01/12 10:34:21;;;;;;;36.45;33.85;;;;;;;;;;5030031;28;20037;-62
2023/01/12 10:36:48;;;;;;;36.40;33.75;;;;;;;;;;5026551;28;20037;-61
2023/01/12 10:39:34;;;;;;;37.40;34.80;;;;;;;;;;5031096;28;20052;-61
2023/01/12 10:45:11;;;;;;;37.75;35.05;;;;;;;;;;5028082;28;20040;-62
2023/01/12 10:47:37;;;;;;;38.92;36.13;;;;;;;;;;5037866;28;20097;-62
2023/01/12 10:50:21;;;;;;;37.88;35.28;;;;;;;;;;5035324;28;20120;-60
2023/01/12 10:52:49;;;;;;;36.33;33.83;;;;;;;;;;5033168;28;20030;-59
2023/01/12 10:55:19;;;;;;;38.35;35.35;;;;;;;;;;5035341;28;20051;-63
2023/01/12 10:57:46;;;;;;;36.55;33.90;;;;;;;;;;5034184;28;20108;-63
2023/01/12 11:00:20;;;;;;;36.60;33.80;;;;;;;;;;5035260;28;20028;-62
2023/01/12 11:02:46;;;;;;;35.00;32.50;;;;;;;;;;5035424;28;20022;-62
2023/01/12 11:05:30;;;;;;;33.80;31.30;;;;;;;;;;5034993;28;20029;-59
2023/01/12 11:07:57;;;;;;;34.50;31.90;;;;;;;;;;5035004;28;20041;-58
2023/01/12 11:10:30;;;;;;;35.30;32.70;;;;;;;;;;5034589;28;20049;-59
2023/01/12 11:13:02;;;;;;;34.97;32.47;;;;;;;;;;5032785;28;20466;-58
2023/01/12 11:15:29;;;;;;;35.30;32.80;;;;;;;;;;5035052;28;20029;-56
2023/01/12 11:18:06;;;;;;;36.28;33.58;;;;;;;;;;5035369;28;20033;-59
2023/01/12 11:20:36;;;;;;;35.10;32.50;;;;;;;;;;5035277;28;20030;-56
2023/01/12 11:23:04;;;;;;;35.50;32.92;;;;;;;;;;5033728;28;20047;-61
2023/01/12 11:25:33;;;;;;;38.20;35.60;;;;;;;;;;5022741;28;20022;-56
2023/01/12 11:28:05;;;;;;;37.15;34.55;;;;;;;;;;5030647;28;20025;-60
2023/01/12 11:30:43;;;;;;;37.35;34.70;;;;;;;;;;5027202;28;20040;-55
2023/01/12 11:33:15;;;;;;;38.72;35.28;;;;;;;;;;5032367;28;20029;-60
2023/01/12 11:35:41;;;;;;;36.75;34.15;;;;;;;;;;5029901;28;20089;-58
2023/01/12 11:38:16;;;;;;;37.58;34.97;;;;;;;;;;5033632;28;20033;-61
2023/01/12 11:40:43;;;;;;;36.50;33.88;;;;;;;;;;5032649;28;20025;-58
2023/01/12 11:46:22;;;;;;;36.47;33.97;;;;;;;;;;5031974;28;20071;-60
2023/01/12 11:48:48;;;;;;;35.88;33.38;;;;;;;;;;5034010;28;20025;-61
2023/01/12 11:51:14;;;;;;;35.10;32.63;;;;;;;;;;5035261;28;20018;-62
2023/01/12 11:53:40;;;;;;;33.72;31.27;;;;;;;;;;5034569;28;20095;-62
2023/01/12 11:56:18;;;;;;;32.90;30.50;;;;;;;;;;5036090;28;20026;-61
2023/01/12 11:58:55;;;;;;;31.85;29.40;;;;;;;;;;5035029;28;20048;-63
2023/01/12 12:01:24;;;;;;;32.08;29.50;;;;;;;;;;5034259;28;20113;-61
2023/01/12 12:04:02;;;;;;;31.48;28.42;;;;;;;;;;5032757;28;20087;-62
2023/01/12 12:06:41;;;;;;;29.52;27.23;;;;;;;;;;5031285;28;20069;-63
2023/01/12 12:09:25;;;;;;;29.45;26.95;;;;;;;;;;5015710;28;20152;-59
2023/01/12 12:11:57;;;;;;;29.25;26.85;;;;;;;;;;5014460;28;20037;-57
2023/01/12 12:14:27;;;;;;;27.98;25.88;;;;;;;;;;5027205;28;20026;-59
2023/01/12 12:16:59;;;;;;;28.58;25.80;;;;;;;;;;5034229;28;20079;-58
2023/01/12 12:19:32;;;;;;;27.75;25.55;;;;;;;;;;5034442;28;20033;-60
2023/01/12 12:22:04;;;;;;;28.95;25.90;;;;;;;;;;5034752;28;20040;-59
2023/01/12 12:24:50;;;;;;;28.60;26.40;;;;;;;;;;5032163;28;20029;-60
2023/01/12 12:27:27;;;;;;;28.50;26.20;;;;;;;;;;5023850;28;20038;-60
2023/01/12 12:30:03;;;;;;;29.55;27.15;;;;;;;;;;5033095;28;20026;-60
2023/01/12 12:32:52;;;;;;;28.63;26.33;;;;;;;;;;5032634;28;20454;-59
2023/01/12 12:35:19;;;;;;;28.10;25.90;;;;;;;;;;5033608;28;20456;-59
2023/01/12 12:37:46;;;;;;;28.40;26.20;;;;;;;;;;5033625;28;20033;-60
2023/01/12 12:40:15;;;;;;;27.88;25.67;;;;;;;;;;5033367;28;20029;-62
2023/01/12 12:45:39;;;;;;;28.23;26.13;;;;;;;;;;5033979;28;20176;-60
2023/01/12 12:48:08;;;;;;;28.60;26.40;;;;;;;;;;5033211;28;20029;-62
2023/01/12 12:50:59;;;;;;;28.50;26.20;;;;;;;;;;5028846;28;20036;-64
2023/01/12 12:53:29;;;;;;;29.17;26.80;;;;;;;;;;5030676;28;20037;-61
2023/01/12 12:55:58;;;;;;;29.55;27.30;;;;;;;;;;5030869;28;20024;-62
2023/01/12 12:58:26;;;;;;;29.83;27.52;;;;;;;;;;5030806;28;20871;-59
2023/01/12 13:00:55;;;;;;;30.10;27.70;;;;;;;;;;5032055;28;20029;-61
2023/01/12 13:03:21;;;;;;;;;;;;;;;;;;5032417;28;20013;-62
2023/01/12 13:05:49;;;;;;;27.55;25.35;;;;;;;;;;5032257;28;20007;-59
2023/01/12 13:08:23;;;;;;;27.77;25.40;;;;;;;;;;5031483;28;20021;-58
2023/01/12 13:10:51;;;;;;;28.05;25.95;;;;;;;;;;5031575;28;20378;-62
2023/01/12 13:13:26;;;;;;;29.75;27.45;;;;;;;;;;5027795;28;20048;-61
2023/01/12 13:16:11;;;;;;;32.33;30.02;;;;;;;;;;5031924;28;20116;-63
2023/01/12 13:18:43;;;;;;;31.55;28.98;;;;;;;;;;5047669;28;20040;-61
2023/01/12 13:21:29;;;;;;;32.60;30.20;;;;;;;;;;5031135;28;20409;-60
2023/01/12 13:24:11;;;;;;;32.05;29.65;;;;;;;;;;5026706;28;20021;-61
2023/01/12 13:26:41;;;;;;;32.80;30.13;;;;;;;;;;5032760;28;20092;-59
2023/01/12 13:29:23;;;;;;;32.88;30.48;;;;;;;;;;5032734;28;20029;-61
2023/01/12 13:31:58;;;;;;;34.95;32.35;;;;;;;;;;5029987;28;20017;-65
2023/01/12 13:34:54;;;;;;;36.42;33.83;;;;;;;;;;5032056;28;20128;-62
2023/01/12 13:37:38;;;;;;;39.53;36.63;;;;;;;;;;5009344;28;20506;-58
2023/01/12 13:40:31;;;;;;;39.90;37.10;;;;;;;;;;5030463;28;20028;-63
2023/01/12 13:43:14;;;;;;;41.95;39.05;;;;;;;;;;5028694;28;20034;-59
2023/01/12 13:45:50;;;;;;;40.53;37.72;;;;;;;;;;5027150;28;20021;-60
2023/01/12 13:48:17;;;;;;;40.70;37.63;;;;;;;;;;5031963;28;20032;-62
2023/01/12 13:50:48;;;;;;;40.67;37.80;;;;;;;;;;5032107;28;20018;-60
2023/01/12 13:53:23;;;;;;;41.28;38.47;;;;;;;;;;5031685;28;20464;-60
2023/01/12 13:56:06;;;;;;;41.13;38.33;;;;;;;;;;5032447;28;20076;-62
2023/01/12 13:58:43;;;;;;;39.25;36.55;;;;;;;;;;5031923;28;20485;-59
2023/01/12 14:01:17;;;;;;;40.83;38.03;;;;;;;;;;5031896;28;20021;-55
2023/01/12 14:03:49;;;;;;;40.38;37.55;;;;;;;;;;5031713;28;20557;-61
2023/01/12 14:06:16;;;;;;;41.55;38.75;;;;;;;;;;5030442;28;20025;-57
2023/01/12 14:09:01;;;;;;;41.42;38.63;;;;;;;;;;5029857;28;21567;-60
2023/01/12 14:11:30;;;;;;;39.47;36.67;;;;;;;;;;5026464;28;20080;-59
2023/01/12 14:19:41;;;;;;;41.70;38.90;;;;;;;;;;5028673;28;20037;-59
2023/01/12 14:22:17;;;;;;;41.45;38.38;;;;;;;;;;5028950;28;20029;-60
2023/01/12 14:24:44;;;;;;;40.50;37.65;;;;;;;;;;5033592;28;20381;-61
2023/01/12 14:27:20;;;;;;;39.40;36.70;;;;;;;;;;5031927;28;20633;-62
2023/01/12 14:29:46;;;;;;;39.78;37.08;;;;;;;;;;5031960;28;20036;-63
2023/01/12 14:32:13;;;;;;;40.50;37.70;;;;;;;;;;5031910;28;20449;-62
2023/01/12 14:34:47;;;;;;;40.97;37.97;;;;;;;;;;5031731;28;20453;-60
2023/01/12 14:37:24;;;;;;;43.92;40.85;;;;;;;;;;5031605;28;20022;-61
2023/01/12 14:39:50;;;;;;;44.85;41.85;;;;;;;;;;5031909;28;20053;-61
2023/01/12 14:47:47;;;;;;;43.30;40.33;;;;;;;;;;5031607;28;20075;-61
2023/01/12 14:50:13;;;;;;;43.22;40.08;;;;;;;;;;5031707;28;20037;-63
2023/01/12 14:52:44;;;;;;;39.10;36.40;;;;;;;;;;5031445;28;20033;-63
2023/01/12 14:55:26;;;;;;;38.95;36.30;;;;;;;;;;5030378;28;20129;-63
2023/01/12 14:57:54;;;;;;;37.60;34.90;;;;;;;;;;5027706;28;20520;-60
2023/01/12 15:00:22;;;;;;;37.40;34.80;;;;;;;;;;5030063;28;20057;-59
2023/01/12 15:02:50;;;;;;;39.13;35.97;;;;;;;;;;5029926;28;20031;-60
2023/01/12 15:05:24;;;;;;;38.90;36.23;;;;;;;;;;5029785;28;20045;-57
2023/01/12 15:07:53;;;;;;;40.95;38.15;;;;;;;;;;5030041;28;20061;-60
2023/01/12 15:10:19;;;;;;;42.00;39.10;;;;;;;;;;5031234;28;20059;-60
2023/01/12 15:12:49;;;;;;;39.75;37.05;;;;;;;;;;5029256;28;20105;-60
2023/01/12 15:15:26;;;;;;;39.35;36.65;;;;;;;;;;5031036;28;20496;-60
2023/01/12 15:26:14;;;;;;;37.97;35.28;;;;;;;;;;5031529;28;20040;-64
2023/01/12 15:28:40;;;;;;;38.25;35.55;;;;;;;;;;5030128;28;20110;-62
2023/01/12 15:31:18;;;;;;;37.83;35.22;;;;;;;;;;5029341;28;20057;-66
2023/01/12 15:33:44;;;;;;;38.65;35.85;;;;;;;;;;5029017;28;20033;-66